Time;durP1;ratioP1;P1;durP2;ratioP2;P2;SDS_P1;SDS_P2;PMS_P1;PMS_P2;Temp;Humidity;BMP_temperature;BMP_pressure;BME280_temperature;BME280_humidity;BME280_pressure;Samples;Min_cycle;Max_cycle;Signal;HPM_P1;HPM_P2
2021/07/23 00:02:05;;;;;;;19.82;11.63;;;;;;;18.12;62.80;100958.70;1727496;80;25786;-71
2021/07/23 00:04:32;;;;;;;21.70;11.75;;;;;;;18.12;62.83;100960.05;1729334;80;25760;-71
2021/07/23 00:06:58;;;;;;;20.80;10.72;;;;;;;18.11;62.84;100956.47;1730205;80;26718;-71
2021/07/23 00:09:23;;;;;;;19.15;10.85;;;;;;;18.12;62.88;100962.77;1728758;80;27367;-71
2021/07/23 00:11:50;;;;;;;22.80;11.73;;;;;;;18.13;62.86;100960.44;1733365;80;25905;-71
2021/07/23 00:14:16;;;;;;;25.27;11.80;;;;;;;18.13;62.92;100958.59;1729171;81;25850;-71
2021/07/23 00:16:43;;;;;;;30.12;13.22;;;;;;;18.13;62.94;100959.95;1736459;80;26491;-71
2021/07/23 00:19:11;;;;;;;18.82;11.22;;;;;;;18.13;62.95;100959.95;1735890;80;25797;-71
2021/07/23 00:21:37;;;;;;;17.98;11.25;;;;;;;18.13;62.95;100957.72;1728487;80;27488;-71
2021/07/23 00:24:03;;;;;;;18.87;10.82;;;;;;;18.12;62.97;100960.05;1727427;80;25359;-71
2021/07/23 00:26:29;;;;;;;26.37;12.25;;;;;;;18.11;62.99;100960.55;1725136;80;25943;-71
2021/07/23 00:28:55;;;;;;;21.45;11.28;;;;;;;18.10;63.03;100958.80;1726619;80;25815;-71
2021/07/23 00:31:21;;;;;;;24.23;11.60;;;;;;;18.08;63.05;100958.53;1726893;80;25833;-71
2021/07/23 00:33:46;;;;;;;27.90;12.07;;;;;;;18.07;63.03;100959.02;1721604;80;27338;-71
2021/07/23 00:36:14;;;;;;;29.80;11.93;;;;;;;18.03;63.13;100953.42;1722983;82;26712;-72
2021/07/23 00:38:39;;;;;;;17.45;10.58;;;;;;;18.03;63.17;100959.34;1725097;81;25953;-71
2021/07/23 00:41:05;;;;;;;24.45;11.15;;;;;;;18.01;63.22;100958.58;1726706;82;25681;-71
2021/07/23 00:43:31;;;;;;;22.40;11.53;;;;;;;18.00;63.20;100956.84;1724715;81;25851;-71
2021/07/23 00:45:59;;;;;;;22.50;11.53;;;;;;;17.98;63.25;100956.94;1727469;81;27480;-71
2021/07/23 00:48:25;;;;;;;21.50;11.75;;;;;;;17.96;63.32;100956.67;1716801;81;25934;-71
2021/07/23 00:50:51;;;;;;;24.37;11.95;;;;;;;17.95;63.37;100954.93;1718960;81;26473;-71
2021/07/23 00:53:19;;;;;;;19.90;12.30;;;;;;;17.94;63.42;100953.19;1720028;82;26498;-71
2021/07/23 00:55:54;;;;;;;24.37;10.82;;;;;;;17.94;63.46;100954.55;1720206;81;26168;-71
2021/07/23 00:58:20;;;;;;;24.45;11.63;;;;;;;17.93;63.48;100956.88;1710227;81;27502;-71
2021/07/23 01:00:48;;;;;;;24.92;12.07;;;;;;;17.92;63.56;100957.85;1715912;81;25823;-73
2021/07/23 01:03:14;;;;;;;25.25;11.53;;;;;;;17.92;63.60;100956.50;1720386;82;25795;-71
2021/07/23 01:05:40;;;;;;;24.90;11.60;;;;;;;17.92;63.62;100956.50;1715354;82;26513;-70
2021/07/23 01:08:06;;;;;;;20.90;12.03;;;;;;;17.89;63.65;100957.58;1711101;82;25772;-71
2021/07/23 01:10:38;;;;;;;18.30;11.65;;;;;;;17.89;63.72;100952.64;1720694;81;27540;-71
2021/07/23 01:13:04;;;;;;;20.90;11.48;;;;;;;17.87;63.80;100953.23;1719983;81;25790;-71
2021/07/23 01:15:34;;;;;;;18.27;11.57;;;;;;;17.87;63.83;100951.39;1722364;81;25786;-71
2021/07/23 01:18:00;;;;;;;20.20;12.25;;;;;;;17.84;63.94;100949.76;1717218;81;25854;-71
2021/07/23 01:20:28;;;;;;;23.22;12.30;;;;;;;17.84;63.96;100952.47;1720035;81;25714;-71
2021/07/23 01:22:57;;;;;;;24.45;13.53;;;;;;;17.82;64.00;100954.91;1710342;81;27486;-71
2021/07/23 01:25:24;;;;;;;21.52;11.95;;;;;;;17.80;64.17;100951.43;1714299;81;25959;-71
2021/07/23 01:27:52;;;;;;;19.42;12.18;;;;;;;17.79;64.22;100950.56;1712777;81;25722;-71
2021/07/23 01:30:21;;;;;;;21.68;12.47;;;;;;;17.78;64.28;100949.31;1715829;81;25915;-71
2021/07/23 01:32:47;;;;;;;22.20;13.18;;;;;;;17.77;64.27;100954.34;1715817;81;25854;-71
2021/07/23 01:35:13;;;;;;;18.65;12.33;;;;;;;17.75;64.36;100951.75;1716212;81;27394;-71
2021/07/23 01:37:47;;;;;;;22.58;12.60;;;;;;;17.73;64.42;100957.76;1714124;81;26103;-71
2021/07/23 01:40:15;;;;;;;23.22;12.75;;;;;;;17.70;64.46;100956.61;1721970;81;25838;-71
2021/07/23 01:42:44;;;;;;;22.82;12.82;;;;;;;17.67;64.52;100952.75;1718646;81;25779;-71
2021/07/23 01:45:12;;;;;;;23.05;13.10;;;;;;;17.67;64.60;100958.66;1719747;81;25757;-71
2021/07/23 01:47:39;;;;;;;24.57;13.13;;;;;;;17.65;64.63;100957.38;1725630;81;28141;-71
2021/07/23 01:50:05;;;;;;;23.60;13.30;;;;;;;17.64;64.66;100955.64;1716841;81;25827;-71
2021/07/23 01:52:33;;;;;;;21.50;12.25;;;;;;;17.63;64.73;100953.03;1721978;81;26225;-71
2021/07/23 01:54:59;;;;;;;21.77;12.63;;;;;;;17.60;64.74;100956.81;1713276;81;25911;-72
2021/07/23 01:57:25;;;;;;;19.98;12.50;;;;;;;17.57;64.75;100948.89;1736013;80;25892;-72
2021/07/23 01:59:51;;;;;;;22.98;12.35;;;;;;;17.55;64.88;100949.48;1740992;80;28191;-72
2021/07/23 02:02:18;;;;;;;22.22;13.30;;;;;;;17.55;64.93;100952.19;1749443;80;25860;-72
2021/07/23 02:04:44;;;;;;;18.87;12.53;;;;;;;17.54;64.98;100946.39;1747474;80;25917;-72
2021/07/23 02:07:12;;;;;;;26.48;13.25;;;;;;;17.55;65.01;100952.19;1721815;81;25769;-72
2021/07/23 02:09:38;;;;;;;21.37;11.78;;;;;;;17.53;65.08;100947.36;1721749;81;25780;-72
2021/07/23 02:12:05;;;;;;;29.12;13.35;;;;;;;17.52;65.16;100948.33;1741590;80;27403;-72
2021/07/23 02:14:30;;;;;;;20.65;13.20;;;;;;;17.49;65.12;100949.41;1741090;80;25742;-72
2021/07/23 02:16:58;;;;;;;28.42;12.00;;;;;;;17.45;65.20;100949.72;1742270;80;25808;-72
2021/07/23 02:19:24;;;;;;;24.65;14.15;;;;;;;17.42;65.24;100949.92;1743526;80;25833;-72
2021/07/23 02:21:50;;;;;;;26.35;12.58;;;;;;;17.39;65.37;100949.64;1740820;80;25769;-72
2021/07/23 02:24:16;;;;;;;21.02;12.90;;;;;;;17.39;65.45;100951.00;1720005;82;28079;-72
2021/07/23 02:26:42;;;;;;;25.20;13.50;;;;;;;17.40;65.48;100949.16;1712462;81;25812;-72
2021/07/23 02:29:08;;;;;;;25.88;13.25;;;;;;;17.40;65.54;100945.09;1724704;81;26004;-72
2021/07/23 02:31:34;;;;;;;21.35;12.30;;;;;;;17.39;65.61;100946.06;1743708;80;25822;-72
2021/07/23 02:34:00;;;;;;;25.60;13.95;;;;;;;17.38;65.65;100941.62;1742563;80;25849;-72
2021/07/23 02:36:25;;;;;;;30.60;13.20;;;;;;;17.38;65.68;100947.03;1731690;80;27482;-72
2021/07/23 02:38:51;;;;;;;23.80;13.55;;;;;;;17.36;65.72;100944.91;1740469;80;25972;-73
2021/07/23 02:41:19;;;;;;;21.07;11.75;;;;;;;17.34;65.79;100939.59;1731640;80;25937;-72
2021/07/23 02:43:49;;;;;;;24.50;12.28;;;;;;;17.32;65.79;100937.48;1732213;80;25875;-72
2021/07/23 02:46:13;;;;;;;25.32;13.72;;;;;;;17.32;65.85;100936.61;1741109;80;25742;-72
2021/07/23 02:48:39;;;;;;;22.22;13.53;;;;;;;17.31;65.91;100934.38;1729522;80;27503;-72
2021/07/23 02:51:09;;;;;;;23.57;13.18;;;;;;;17.31;65.97;100931.67;1720864;81;25856;-72
2021/07/23 02:53:35;;;;;;;27.85;13.40;;;;;;;17.31;66.03;100933.03;1730724;81;25739;-72
2021/07/23 02:56:02;;;;;;;23.32;12.80;;;;;;;17.31;66.07;100932.16;1719397;81;27028;-73
2021/07/23 02:58:32;;;;;;;21.05;13.10;;;;;;;17.30;66.10;100935.36;1711423;80;25908;-72
2021/07/23 03:01:01;;;;;;;19.65;12.65;;;;;;;17.28;66.11;100935.08;1728498;80;27681;-72
2021/07/23 03:03:26;;;;;;;19.73;13.13;;;;;;;17.27;66.18;100932.84;1727111;81;26301;-72
2021/07/23 03:05:52;;;;;;;25.37;13.20;;;;;;;17.23;66.21;100927.73;1724999;80;26172;-72
2021/07/23 03:08:18;;;;;;;23.57;13.13;;;;;;;17.25;66.29;100937.50;1727741;81;26382;-72
2021/07/23 03:10:44;;;;;;;21.85;12.75;;;;;;;17.23;66.32;100928.61;1726123;80;26012;-72
2021/07/23 03:13:10;;;;;;;23.18;12.68;;;;;;;17.21;66.37;100927.84;1726824;80;28201;-71
2021/07/23 03:15:37;;;;;;;25.23;13.00;;;;;;;17.22;66.44;100928.70;1723815;81;25815;-71
2021/07/23 03:18:03;;;;;;;19.57;12.25;;;;;;;17.22;66.46;100928.70;1728497;81;25868;-71
2021/07/23 03:20:29;;;;;;;24.05;13.13;;;;;;;17.22;66.52;100923.29;1725480;81;25896;-71
2021/07/23 03:22:54;;;;;;;26.85;13.98;;;;;;;17.22;66.55;100928.70;1712897;82;25785;-71
2021/07/23 03:25:20;;;;;;;20.52;13.13;;;;;;;17.20;66.67;100932.39;1713282;81;28215;-71
2021/07/23 03:27:46;;;;;;;24.87;13.60;;;;;;;17.20;66.67;100924.27;1705091;81;26295;-71
2021/07/23 03:30:13;;;;;;;26.73;14.20;;;;;;;17.20;66.73;100925.62;1711376;82;26465;-72
2021/07/23 03:32:39;;;;;;;23.32;12.95;;;;;;;17.18;66.78;100928.91;1726832;81;25991;-71
2021/07/23 03:35:06;;;;;;;29.45;13.43;;;;;;;17.17;66.87;100927.17;1728119;80;26602;-71
2021/07/23 03:37:32;;;;;;;22.90;13.20;;;;;;;17.19;66.93;100929.30;1720703;81;28176;-71
2021/07/23 03:39:58;;;;;;;24.70;12.90;;;;;;;17.19;66.91;100920.30;1720553;81;26005;-72
2021/07/23 03:42:24;;;;;;;24.87;12.13;;;;;;;17.22;66.99;100924.64;1715236;81;25839;-72
2021/07/23 03:44:50;;;;;;;26.48;12.75;;;;;;;17.25;67.01;100929.38;1716132;81;25805;-71
2021/07/23 03:47:17;;;;;;;23.77;13.58;;;;;;;17.27;66.99;100930.14;1725175;81;25791;-71
2021/07/23 03:49:45;;;;;;;22.37;12.63;;;;;;;17.28;67.00;100927.81;1728272;80;27578;-71
2021/07/23 03:52:11;;;;;;;21.70;13.22;;;;;;;17.27;67.04;100927.43;1729652;80;25832;-71
2021/07/23 03:54:39;;;;;;;20.15;12.70;;;;;;;17.23;67.07;100922.31;1728959;80;26774;-71
2021/07/23 03:57:07;;;;;;;30.55;15.13;;;;;;;17.28;67.16;100931.87;1731525;80;25901;-71
2021/07/23 03:59:34;;;;;;;31.65;14.15;;;;;;;17.27;67.20;100926.08;1728895;80;25747;-71
2021/07/23 04:02:01;;;;;;;23.50;13.55;;;;;;;17.26;67.22;100924.34;1730808;81;27393;-71
2021/07/23 04:04:28;;;;;;;25.35;13.43;;;;;;;17.26;67.26;100924.83;1730835;81;25867;-71
2021/07/23 04:06:56;;;;;;;19.42;12.93;;;;;;;17.28;67.33;100921.04;1732454;80;25741;-71
2021/07/23 04:09:23;;;;;;;23.42;12.85;;;;;;;17.30;67.27;100919.09;1732338;80;25822;-72
2021/07/23 04:11:50;;;;;;;23.62;12.50;;;;;;;17.31;67.27;100924.03;1728411;80;25929;-73
2021/07/23 04:14:17;;;;;;;24.40;13.58;;;;;;;17.30;67.33;100922.30;1734281;80;28531;-72
2021/07/23 04:16:43;;;;;;;27.62;13.65;;;;;;;17.28;67.44;100922.88;1730138;80;25811;-71
2021/07/23 04:19:10;;;;;;;19.67;12.55;;;;;;;17.30;67.45;100918.23;1726981;80;25775;-72
2021/07/23 04:21:36;;;;;;;27.85;13.85;;;;;;;17.30;67.46;100921.80;1731699;80;25726;-72
2021/07/23 04:24:02;;;;;;;18.45;11.93;;;;;;;17.28;67.49;100928.30;1725473;80;25954;-71
2021/07/23 04:26:28;;;;;;;22.85;12.25;;;;;;;17.27;67.56;100918.44;1729723;80;27473;-71
2021/07/23 04:28:53;;;;;;;22.95;12.82;;;;;;;17.28;67.57;100916.98;1733772;80;25804;-71
2021/07/23 04:31:19;;;;;;;20.77;12.88;;;;;;;17.28;67.56;100920.17;1725050;81;25818;-71
2021/07/23 04:33:45;;;;;;;28.12;13.15;;;;;;;17.31;67.63;100922.67;1719581;81;25829;-70
2021/07/23 04:36:13;;;;;;;27.90;14.15;;;;;;;17.35;67.64;100929.14;1732620;80;25909;-71
2021/07/23 04:38:39;;;;;;;24.12;12.98;;;;;;;17.38;67.67;100921.30;1723475;80;27636;-70
2021/07/23 04:41:05;;;;;;;34.40;13.80;;;;;;;17.44;67.70;100920.39;1728146;80;25911;-71
2021/07/23 04:43:38;;;;;;;23.02;13.13;;;;;;;17.49;67.68;100913.31;1725007;80;25913;-71
2021/07/23 04:46:06;;;;;;;32.50;13.65;;;;;;;17.55;67.70;100916.09;1721045;81;25998;-70
2021/07/23 04:48:32;;;;;;;27.22;12.75;;;;;;;17.60;67.63;100909.87;1723684;81;25878;-71
2021/07/23 04:51:05;;;;;;;24.72;13.08;;;;;;;17.63;67.65;100913.23;1740602;80;27494;-72
2021/07/23 04:53:30;;;;;;;25.43;13.15;;;;;;;17.69;67.63;100914.70;1737131;80;26212;-71
2021/07/23 04:56:01;;;;;;;37.20;13.28;;;;;;;17.73;67.61;100918.45;1738499;80;26414;-70
2021/07/23 04:58:28;;;;;;;23.62;11.83;;;;;;;17.77;67.58;100909.13;1740920;80;25767;-70
2021/07/23 05:00:54;;;;;;;26.17;13.05;;;;;;;17.83;67.60;100912.77;1737863;80;25787;-71
2021/07/23 05:03:27;;;;;;;24.25;11.88;;;;;;;17.88;67.50;100905.67;1731123;80;27972;-71
2021/07/23 05:05:57;;;;;;;23.30;13.22;;;;;;;17.94;67.48;100908.44;1734221;80;25857;-71
2021/07/23 05:08:23;;;;;;;23.67;12.88;;;;;;;17.99;67.45;100912.57;1741209;80;25304;-72
2021/07/23 05:10:50;;;;;;;23.50;12.37;;;;;;;18.04;67.43;100910.89;1739758;80;25845;-73
2021/07/23 05:13:16;;;;;;;24.20;12.73;;;;;;;18.09;67.38;100908.72;1736716;80;25876;-72
2021/07/23 05:15:42;;;;;;;23.47;11.68;;;;;;;18.12;67.32;100913.45;1739908;81;27391;-72
2021/07/23 05:18:14;;;;;;;24.40;13.72;;;;;;;18.17;67.26;100917.19;1740765;80;25851;-73
2021/07/23 05:20:42;;;;;;;28.50;12.33;;;;;;;18.22;67.25;100913.62;1731643;80;25762;-72
2021/07/23 05:23:08;;;;;;;24.05;12.58;;;;;;;18.28;67.21;100913.20;1737206;80;25836;-72
2021/07/23 05:25:34;;;;;;;28.25;14.40;;;;;;;18.34;67.13;100911.41;1739226;80;25786;-72
2021/07/23 05:28:01;;;;;;;28.05;12.58;;;;;;;18.40;67.13;100909.61;1737692;80;27314;-72
2021/07/23 05:30:27;;;;;;;29.98;13.38;;;;;;;18.45;67.05;100911.98;1740743;80;25862;-72
2021/07/23 05:32:53;;;;;;;27.73;12.03;;;;;;;18.46;67.02;100903.73;1738718;80;26344;-73
2021/07/23 05:35:19;;;;;;;24.32;14.28;;;;;;;18.52;66.99;100902.42;1739046;80;26468;-72
2021/07/23 05:37:45;;;;;;;31.15;13.48;;;;;;;18.56;66.88;100904.43;1738908;80;25766;-72
2021/07/23 05:40:12;;;;;;;22.82;12.35;;;;;;;18.56;66.79;100903.08;1744349;80;27385;-73
2021/07/23 05:42:39;;;;;;;27.58;11.60;;;;;;;18.57;66.81;100904.32;1742174;80;25687;-73
2021/07/23 05:45:06;;;;;;;21.68;12.00;;;;;;;18.58;66.76;100895.20;1741657;80;25818;-74
2021/07/23 05:47:32;;;;;;;22.22;13.35;;;;;;;18.59;66.67;100905.56;1739070;81;25867;-72
2021/07/23 05:49:58;;;;;;;24.55;13.48;;;;;;;18.57;66.64;100904.81;1735066;81;25786;-72
2021/07/23 05:52:24;;;;;;;26.35;12.43;;;;;;;18.58;66.64;100907.41;1737562;80;27405;-75
2021/07/23 05:54:50;;;;;;;26.95;12.68;;;;;;;18.60;66.57;100909.53;1735356;80;43108;-72
2021/07/23 05:57:17;;;;;;;28.52;12.35;;;;;;;18.58;66.53;100907.41;1740611;80;25767;-72
2021/07/23 05:59:45;;;;;;;34.15;14.05;;;;;;;18.57;66.52;100905.67;1734945;81;26427;-71
2021/07/23 06:02:11;;;;;;;25.70;12.80;;;;;;;18.56;66.44;100907.14;1737328;80;25846;-72
2021/07/23 06:04:37;;;;;;;28.47;12.78;;;;;;;18.58;66.52;100903.34;1734068;80;28044;-72
2021/07/23 06:07:04;;;;;;;22.40;12.95;;;;;;;18.62;66.50;100909.45;1738352;80;25813;-72
2021/07/23 06:09:31;;;;;;;29.52;12.20;;;;;;;18.66;66.49;100905.53;1739910;80;25738;-72
2021/07/23 06:11:57;;;;;;;28.05;12.23;;;;;;;18.72;66.42;100903.73;1740840;80;25785;-73
2021/07/23 06:14:23;;;;;;;24.35;12.37;;;;;;;18.75;66.44;100904.38;1734559;80;25755;-72
2021/07/23 06:16:48;;;;;;;28.15;12.03;;;;;;;18.83;66.42;100907.02;1736172;81;27464;-72
2021/07/23 06:19:14;;;;;;;28.07;13.18;;;;;;;18.85;66.35;100909.99;1743068;80;25911;-74
2021/07/23 06:21:40;;;;;;;26.02;12.40;;;;;;;18.89;66.30;100907.92;1733669;80;26225;-74
2021/07/23 06:24:06;;;;;;;36.00;13.45;;;;;;;18.90;66.28;100905.09;1738559;80;25725;-73
2021/07/23 06:26:32;;;;;;;20.55;11.75;;;;;;;18.93;66.25;100903.51;1745858;80;25870;-73
2021/07/23 06:28:58;;;;;;;38.58;13.60;;;;;;;18.99;66.25;100903.05;1740296;80;27393;-73
2021/07/23 06:31:24;;;;;;;23.95;12.58;;;;;;;19.10;66.22;100909.05;1737797;80;25833;-73
2021/07/23 06:33:50;;;;;;;32.98;13.70;;;;;;;19.17;66.17;100908.96;1739403;80;26509;-72
2021/07/23 06:36:16;;;;;;;29.20;11.43;;;;;;;19.27;66.15;100900.50;1738742;80;26777;-72
2021/07/23 06:38:42;;;;;;;18.60;11.03;;;;;;;19.33;66.07;100898.67;1731703;80;25832;-72
2021/07/23 06:41:08;;;;;;;28.47;12.80;;;;;;;19.45;65.98;100904.53;1710459;81;27395;-73
2021/07/23 06:43:34;;;;;;;18.92;11.73;;;;;;;19.54;65.93;100907.08;1739647;80;25781;-73
2021/07/23 06:46:02;;;;;;;30.77;12.00;;;;;;;19.63;65.82;100913.66;1742395;80;25790;-73
2021/07/23 06:48:28;;;;;;;23.10;10.82;;;;;;;19.70;65.74;100911.71;1735303;80;25902;-72
2021/07/23 06:50:54;;;;;;;23.70;11.63;;;;;;;19.83;65.58;100908.05;1742105;80;26524;-73
2021/07/23 06:53:20;;;;;;;24.27;11.38;;;;;;;19.93;65.38;100908.56;1732751;80;27426;-73
2021/07/23 06:55:46;;;;;;;27.30;12.05;;;;;;;20.00;65.28;100913.03;1740770;80;25857;-73
2021/07/23 06:58:12;;;;;;;16.73;9.75;;;;;;;20.10;65.15;100909.47;1734405;80;25884;-73
2021/07/23 07:00:38;;;;;;;24.98;11.00;;;;;;;20.22;64.83;100912.20;1736257;80;26488;-74
2021/07/23 07:03:06;;;;;;;16.60;9.05;;;;;;;20.26;64.43;100909.13;1721696;81;25828;-72
2021/07/23 07:05:32;;;;;;;16.93;9.88;;;;;;;20.29;64.14;100907.52;1713509;81;28181;-72
2021/07/23 07:07:59;;;;;;;16.57;9.65;;;;;;;20.36;64.00;100901.09;1717486;81;25838;-72
2021/07/23 07:10:26;;;;;;;18.48;9.43;;;;;;;20.41;63.84;100899.77;1718534;81;25873;-72
2021/07/23 07:12:57;;;;;;;29.12;9.75;;;;;;;20.47;63.71;100901.13;1740810;80;25764;-70
2021/07/23 07:15:23;;;;;;;;;;;;;;;20.53;63.57;100896.55;1728228;80;25682;-71
2021/07/23 07:17:58;;;;;;;20.20;10.10;;;;;;;20.61;63.37;100897.28;1742144;80;27383;-73
2021/07/23 07:20:24;;;;;;;15.83;8.08;;;;;;;20.65;63.26;100896.05;1713626;81;26310;-72
2021/07/23 07:22:52;;;;;;;21.27;8.80;;;;;;;20.78;63.13;100895.41;1715979;81;25827;-73
2021/07/23 07:25:22;;;;;;;27.00;9.00;;;;;;;20.86;62.97;100892.03;1711556;81;26348;-72
2021/07/23 07:27:49;;;;;;;20.70;9.13;;;;;;;20.94;62.79;100904.02;1711138;81;25838;-72
2021/07/23 07:30:15;;;;;;;17.17;8.55;;;;;;;21.01;62.55;100901.16;1719580;81;27357;-72
2021/07/23 07:32:41;;;;;;;16.90;8.98;;;;;;;21.06;62.42;100897.56;1744441;80;25699;-72
2021/07/23 07:35:08;;;;;;;20.17;8.18;;;;;;;21.18;62.09;100905.21;1740242;80;25893;-72
2021/07/23 07:37:34;;;;;;;20.57;8.00;;;;;;;21.18;61.73;100894.31;1742638;80;25751;-72
2021/07/23 07:40:01;;;;;;;17.48;9.00;;;;;;;21.26;61.60;100897.78;1740881;80;25794;-73
2021/07/23 07:42:30;;;;;;;20.27;8.35;;;;;;;21.32;61.43;100898.14;1744273;80;27358;-73
2021/07/23 07:44:55;;;;;;;15.23;8.53;;;;;;;21.36;61.14;100898.74;1697727;82;25864;-72
2021/07/23 07:47:20;;;;;;;13.30;8.25;;;;;;;21.39;60.85;100900.72;1712332;82;25845;-75
2021/07/23 07:49:46;;;;;;;11.75;7.78;;;;;;;21.42;60.63;100900.95;1736846;80;25781;-74
2021/07/23 07:52:12;;;;;;;15.75;7.92;;;;;;;21.47;60.51;100906.02;1732739;80;25797;-75
2021/07/23 07:54:38;;;;;;;22.32;7.80;;;;;;;21.55;59.88;100907.59;1725137;80;27964;-75
2021/07/23 07:57:09;;;;;;;20.95;8.58;;;;;;;21.55;59.88;100907.59;1715003;80;25914;-73
2021/07/23 07:59:37;;;;;;;16.90;8.40;;;;;;;21.60;59.69;100901.25;1716363;80;25807;-72
2021/07/23 08:02:09;;;;;;;20.77;9.65;;;;;;;21.69;59.57;100895.88;1713404;81;26265;-73
2021/07/23 08:04:35;;;;;;;17.20;9.00;;;;;;;21.57;59.16;100866.05;1716103;81;25755;-72
2021/07/23 08:07:01;;;;;;;13.65;8.30;;;;;;;21.83;59.19;100897.91;1711856;81;26885;-73
2021/07/23 08:09:27;;;;;;;15.30;8.93;;;;;;;21.97;59.09;100899.81;1728100;81;25767;-72
2021/07/23 08:11:54;;;;;;;23.20;9.88;;;;;;;22.13;58.83;100900.73;1713942;81;25883;-73
2021/07/23 08:14:20;;;;;;;20.90;8.95;;;;;;;22.30;58.49;100906.94;1720658;81;25892;-72
2021/07/23 08:16:47;;;;;;;17.77;8.53;;;;;;;22.51;58.28;100904.17;1724613;81;26065;-72
2021/07/23 08:19:13;;;;;;;12.25;8.55;;;;;;;22.68;58.11;100898.56;1713714;81;28301;-73
2021/07/23 08:21:39;;;;;;;12.23;8.55;;;;;;;22.85;57.65;100897.08;1727465;81;25981;-73
2021/07/23 08:24:06;;;;;;;17.00;8.78;;;;;;;22.94;57.50;100894.37;1705599;81;25951;-73
2021/07/23 08:26:31;;;;;;;13.75;8.08;;;;;;;22.94;56.86;100890.27;1727039;81;26434;-72
2021/07/23 08:28:57;;;;;;;11.25;6.90;;;;;;;22.95;56.58;100890.63;1712663;82;25855;-72
2021/07/23 08:31:23;;;;;;;17.02;8.45;;;;;;;22.98;56.25;100893.08;1728653;81;27980;-73
2021/07/23 08:33:49;;;;;;;15.28;7.80;;;;;;;22.96;55.98;100888.77;1727899;80;26681;-76
2021/07/23 08:36:15;;;;;;;25.15;8.28;;;;;;;22.95;55.26;100883.80;1728727;80;25828;-75
2021/07/23 08:38:41;;;;;;;14.83;8.58;;;;;;;22.87;55.06;100886.36;1721938;80;25868;-77
2021/07/23 08:41:12;;;;;;;20.05;8.58;;;;;;;22.85;55.02;100880.17;1715292;82;25330;-77
2021/07/23 08:43:39;;;;;;;15.20;7.47;;;;;;;22.88;54.98;100886.72;1725303;80;28241;-76
2021/07/23 08:46:04;;;;;;;13.05;7.65;;;;;;;22.95;54.89;100885.16;1723638;80;25894;-76
2021/07/23 08:48:32;;;;;;;17.57;7.50;;;;;;;22.93;54.41;100881.70;1714696;81;25753;-76
2021/07/23 08:50:58;;;;;;;14.00;8.58;;;;;;;23.02;54.46;100883.23;1718891;81;25675;-75
2021/07/23 08:53:23;;;;;;;15.48;8.30;;;;;;;23.07;54.05;100889.14;1721349;82;25674;-76
2021/07/23 08:55:49;;;;;;;14.38;8.03;;;;;;;23.17;54.12;100879.09;1715844;80;27944;-75
2021/07/23 08:58:16;;;;;;;15.15;8.45;;;;;;;23.27;54.10;100882.20;1736636;80;25795;-76
2021/07/23 09:00:41;;;;;;;16.73;8.30;;;;;;;23.42;53.71;100877.13;1717671;81;26405;-75
2021/07/23 09:03:10;;;;;;;14.50;7.45;;;;;;;23.48;53.77;100873.83;1708164;82;25819;-75
2021/07/23 09:05:38;;;;;;;12.75;7.50;;;;;;;23.69;53.82;100876.95;1738249;80;25971;-75
2021/07/23 09:08:19;;;;;;;17.10;8.78;;;;;;;23.83;53.14;100880.61;1738061;80;28225;-74
2021/07/23 09:10:47;;;;;;;16.12;8.03;;;;;;;23.77;52.93;100878.45;1732405;80;34027;-76
2021/07/23 09:13:23;;;;;;;14.65;7.70;;;;;;;23.63;52.31;100876.52;1737210;80;25770;-76
2021/07/23 09:15:50;;;;;;;20.37;8.23;;;;;;;23.58;52.41;100882.06;1739113;80;25980;-75
2021/07/23 09:18:29;;;;;;;20.95;8.20;;;;;;;23.54;52.13;100876.02;1737504;80;27939;-75
2021/07/23 09:21:04;;;;;;;12.63;7.92;;;;;;;23.51;52.18;100877.64;1705391;82;27926;-75
2021/07/23 09:23:37;;;;;;;13.78;7.70;;;;;;;23.51;52.34;100865.33;1739467;80;25865;-76
2021/07/23 09:26:15;;;;;;;17.32;7.83;;;;;;;23.50;52.17;100870.95;1734138;80;25781;-74
2021/07/23 09:28:46;;;;;;;14.43;8.18;;;;;;;23.48;52.09;100871.59;1730653;80;26393;-75
2021/07/23 09:31:25;;;;;;;11.03;7.35;;;;;;;23.45;52.08;100875.98;1740208;80;25835;-73
2021/07/23 09:34:00;;;;;;;9.30;7.03;;;;;;;23.43;51.67;100875.27;1673312;83;27330;-73
2021/07/23 09:36:28;;;;;;;17.42;6.83;;;;;;;23.28;51.49;100874.86;1715694;81;25771;-73
2021/07/23 09:39:06;;;;;;;11.88;7.40;;;;;;;23.28;51.64;100870.25;1712307;81;25869;-73
2021/07/23 09:41:34;;;;;;;12.40;7.45;;;;;;;23.34;51.75;100868.81;1708907;82;25844;-73
2021/07/23 09:44:07;;;;;;;13.58;7.33;;;;;;;23.42;51.72;100871.66;1721119;82;25848;-73
2021/07/23 09:46:44;;;;;;;20.12;6.87;;;;;;;23.54;51.64;100873.78;1721039;82;28247;-72
2021/07/23 09:49:22;;;;;;;13.43;8.23;;;;;;;23.64;51.60;100864.56;1730828;80;25837;-73
2021/07/23 09:51:49;;;;;;;11.33;6.95;;;;;;;23.75;51.20;100858.06;1727315;81;25889;-76
2021/07/23 09:54:18;;;;;;;11.97;8.43;;;;;;;23.79;50.29;100858.64;1719808;81;25814;-73
2021/07/23 09:56:49;;;;;;;10.78;6.95;;;;;;;23.76;50.34;100854.33;1719180;81;25827;-73
2021/07/23 09:59:44;;;;;;;17.27;7.00;;;;;;;23.76;50.52;100847.98;1728480;81;27378;-75
2021/07/23 10:02:18;;;;;;;10.58;6.87;;;;;;;23.93;50.79;100850.83;1713324;81;25749;-73
2021/07/23 10:05:03;;;;;;;13.62;7.50;;;;;;;24.17;50.61;100847.59;1723869;81;25841;-72
2021/07/23 10:07:37;;;;;;;11.93;6.83;;;;;;;24.34;49.93;100847.86;1720170;81;25795;-73
2021/07/23 10:10:07;;;;;;;16.48;7.72;;;;;;;24.44;50.08;100845.95;1718793;81;25799;-71
2021/07/23 10:12:36;;;;;;;10.28;7.15;;;;;;;24.55;49.91;100845.24;1726576;82;27374;-73
2021/07/23 10:15:03;;;;;;;14.07;7.03;;;;;;;24.61;49.55;100847.88;1711077;81;25960;-73
2021/07/23 10:17:31;;;;;;;15.15;7.17;;;;;;;24.73;49.54;100846.66;1715164;81;25830;-73
2021/07/23 10:19:58;;;;;;;10.70;7.75;;;;;;;24.73;49.01;100841.19;1721686;81;25984;-74
2021/07/23 10:22:27;;;;;;;14.85;7.65;;;;;;;24.62;48.88;100841.39;1708060;82;25966;-73
2021/07/23 10:24:56;;;;;;;13.18;7.50;;;;;;;24.41;48.47;100840.27;1723977;81;28261;-74
2021/07/23 10:27:24;;;;;;;11.63;7.37;;;;;;;24.27;48.41;100838.02;1703247;82;26618;-76
2021/07/23 10:29:54;;;;;;;17.45;7.28;;;;;;;24.03;48.10;100842.59;1724810;81;25875;-73
2021/07/23 10:32:31;;;;;;;14.95;7.10;;;;;;;23.82;47.83;100848.27;1724957;81;25806;-73
2021/07/23 10:35:16;;;;;;;17.15;7.17;;;;;;;23.70;48.31;100845.33;1719343;81;25833;-73
2021/07/23 10:37:55;;;;;;;8.53;6.83;;;;;;;23.71;48.63;100841.58;1705585;81;27451;-73
2021/07/23 10:40:31;;;;;;;17.85;7.10;;;;;;;23.74;48.14;100838.55;1713248;81;25906;-74
2021/07/23 10:42:57;;;;;;;12.60;7.00;;;;;;;23.70;48.15;100839.85;1719326;82;25898;-73
2021/07/23 10:45:42;;;;;;;17.12;7.42;;;;;;;23.68;48.53;100843.74;1726125;81;26062;-74
2021/07/23 10:48:08;;;;;;;9.55;6.75;;;;;;;23.71;48.60;100844.82;1710479;81;25787;-73
2021/07/23 10:50:46;;;;;;;20.30;7.37;;;;;;;23.83;48.81;100838.17;1716726;81;27530;-73
2021/07/23 10:53:33;;;;;;;13.62;7.35;;;;;;;23.98;48.75;100835.33;1722376;82;25747;-73
2021/07/23 10:55:58;;;;;;;18.92;7.05;;;;;;;24.08;48.56;100825.21;1711395;81;25914;-73
2021/07/23 10:58:30;;;;;;;12.73;6.90;;;;;;;24.16;48.61;100818.99;1708080;81;26368;-73
2021/07/23 11:01:01;;;;;;;13.45;7.05;;;;;;;24.35;48.50;100831.78;1712705;81;25814;-74
2021/07/23 11:03:43;;;;;;;15.40;7.22;;;;;;;24.38;48.29;100821.89;1714413;80;27544;-73
2021/07/23 11:06:26;;;;;;;18.48;6.90;;;;;;;24.38;48.36;100817.27;1722293;81;25760;-79
2021/07/23 11:09:02;;;;;;;11.12;6.40;;;;;;;24.49;48.45;100814.84;1656554;83;25842;-76
2021/07/23 11:11:27;;;;;;;13.20;6.80;;;;;;;24.63;47.93;100812.97;1704456;81;26169;-75
2021/07/23 11:13:54;;;;;;;11.22;5.95;;;;;;;24.67;47.90;100809.41;1702148;82;25856;-74
2021/07/23 11:16:24;;;;;;;10.65;6.15;;;;;;;24.69;47.61;100807.38;1712233;81;28033;-77